createdAt,value
2023-03-03T00:01:47.415Z,1.56
2023-03-03T00:05:48.118Z,1.45
2023-03-03T00:09:49.412Z,1.34
2023-03-03T00:13:56.361Z,1.37
2023-03-03T00:17:58.465Z,1.21
2023-03-03T00:22:01.734Z,1.21
2023-03-03T00:26:02.688Z,1.11
2023-03-03T00:30:20.365Z,1.00
2023-03-03T00:34:30.813Z,1.07
2023-03-03T00:38:31.934Z,1.01
2023-03-03T00:42:33.886Z,1.03
2023-03-03T00:46:40.977Z,1.11
2023-03-03T00:50:47.377Z,1.13
2023-03-03T00:54:50.575Z,1.25
2023-03-03T00:58:51.090Z,1.22
2023-03-03T01:02:56.824Z,1.14
2023-03-03T01:06:57.431Z,1.09
2023-03-03T01:11:01.958Z,1.08
2023-03-03T01:15:04.121Z,1.13
2023-03-03T01:19:09.820Z,0.98
2023-03-03T01:23:11.044Z,0.99
2023-03-03T01:27:11.768Z,0.86
2023-03-03T01:31:15.379Z,0.84
2023-03-03T01:35:18.940Z,0.78
2023-03-03T01:39:19.302Z,0.77
2023-03-03T01:43:19.966Z,0.64
2023-03-03T01:47:25.393Z,0.60
2023-03-03T01:51:34.178Z,0.52
2023-03-03T01:55:42.336Z,0.56
2023-03-03T01:59:50.507Z,0.53
2023-03-03T02:03:51.647Z,0.47
2023-03-03T02:07:56.099Z,0.38
2023-03-03T02:12:03.049Z,0.44
2023-03-03T02:16:03.702Z,0.48
2023-03-03T02:20:14.798Z,0.42
2023-03-03T02:24:29.208Z,0.32
2023-03-03T02:28:37.161Z,0.22
2023-03-03T02:32:40.418Z,0.19
2023-03-03T02:36:42.693Z,0.09
2023-03-03T02:40:55.372Z,0.02
2023-03-03T02:44:58.777Z,-0.04
2023-03-03T02:48:59.376Z,0.00
2023-03-03T02:52:59.814Z,0.06
2023-03-03T02:57:00.702Z,0.08
2023-03-03T03:01:04.069Z,0.00
2023-03-03T03:05:05.190Z,0.06
2023-03-03T03:09:06.847Z,-0.08
2023-03-03T03:13:07.663Z,-0.20
2023-03-03T03:17:11.860Z,-0.31
2023-03-03T03:21:14.649Z,-0.40
2023-03-03T03:25:16.777Z,-0.84
2023-03-03T03:29:17.940Z,-0.60
2023-03-03T03:33:21.812Z,-0.56
2023-03-03T03:37:23.337Z,-0.57
2023-03-03T03:41:24.154Z,-0.51
2023-03-03T03:45:28.063Z,-0.47
2023-03-03T03:49:31.528Z,-0.29
2023-03-03T03:53:32.628Z,-0.18
2023-03-03T03:57:33.687Z,-0.07
2023-03-03T04:01:34.280Z,0.16
2023-03-03T04:05:37.786Z,0.03
2023-03-03T04:09:39.576Z,-0.14
2023-03-03T04:13:40.732Z,-0.23
2023-03-03T04:17:44.266Z,-0.37
2023-03-03T04:21:48.335Z,-0.45
2023-03-03T04:25:50.450Z,-0.44
2023-03-03T04:29:52.508Z,-0.50
2023-03-03T04:33:57.280Z,-0.56
2023-03-03T04:38:00.913Z,-0.67
2023-03-03T04:42:01.536Z,-0.69
2023-03-03T04:46:03.361Z,-0.72
2023-03-03T04:50:05.036Z,-0.76
2023-03-03T04:54:09.893Z,-0.79
2023-03-03T04:58:12.759Z,-0.94
2023-03-03T05:02:14.835Z,-0.93
2023-03-03T05:06:16.914Z,-1.02
2023-03-03T05:10:21.075Z,-1.05
2023-03-03T05:14:21.706Z,-1.09
2023-03-03T05:18:23.264Z,-1.19
2023-03-03T05:22:23.774Z,-1.15
2023-03-03T05:26:27.369Z,-1.19
2023-03-03T05:30:28.609Z,-1.30
2023-03-03T05:34:29.341Z,-1.23
2023-03-03T05:38:30.079Z,-1.25
2023-03-03T05:42:33.607Z,-1.23
2023-03-03T05:46:35.599Z,-1.22
2023-03-03T05:50:36.643Z,-1.21
2023-03-03T05:54:37.676Z,-1.24
2023-03-03T05:58:42.481Z,-1.37
2023-03-03T06:02:46.290Z,-1.27
2023-03-03T06:06:46.890Z,-1.03
2023-03-03T06:10:47.556Z,-0.88
2023-03-03T06:14:51.905Z,-0.85
2023-03-03T06:18:52.713Z,-0.85
2023-03-03T06:22:53.266Z,-0.65
2023-03-03T06:26:56.340Z,-0.40
2023-03-03T06:31:00.844Z,-0.16
2023-03-03T06:35:01.524Z,-0.21
2023-03-03T06:39:02.384Z,-0.11
2023-03-03T06:43:03.453Z,-0.23
2023-03-03T06:47:06.825Z,-0.27
2023-03-03T06:51:24.700Z,-0.18
2023-03-03T06:55:27.381Z,-0.08
2023-03-03T06:59:30.838Z,0.10
2023-03-03T07:03:38.301Z,0.24
2023-03-03T07:07:40.341Z,0.52
2023-03-03T07:11:42.049Z,0.87
2023-03-03T07:15:42.647Z,1.39
2023-03-03T07:19:48.292Z,1.68
2023-03-03T07:23:51.594Z,2.14
2023-03-03T07:27:51.974Z,2.52
2023-03-03T07:31:53.469Z,3.00
2023-03-03T07:35:59.858Z,3.40
2023-03-03T07:40:02.132Z,3.73
2023-03-03T07:44:10.360Z,3.66
2023-03-03T07:48:28.521Z,3.52
2023-03-03T07:52:56.988Z,3.70
2023-03-03T07:57:00.949Z,3.90
2023-03-03T08:01:42.878Z,4.03
2023-03-03T08:05:47.184Z,4.18
2023-03-03T08:09:54.556Z,4.26
2023-03-03T08:13:58.726Z,4.18
2023-03-03T08:18:00.148Z,4.31
2023-03-03T08:22:10.270Z,4.52
2023-03-03T08:26:15.480Z,4.57
2023-03-03T08:30:17.265Z,4.54
2023-03-03T08:34:17.986Z,4.90
2023-03-03T08:38:22.366Z,5.33
2023-03-03T08:42:25.386Z,5.59
2023-03-03T08:46:27.025Z,6.03
2023-03-03T08:50:28.016Z,6.35
2023-03-03T08:54:28.596Z,6.76
2023-03-03T08:58:35.692Z,7.27
2023-03-03T09:02:38.455Z,7.54
2023-03-03T09:06:39.511Z,7.57
2023-03-03T09:10:44.057Z,7.49
2023-03-03T09:14:47.878Z,7.45
2023-03-03T09:18:48.349Z,7.49
2023-03-03T09:22:49.032Z,7.74
2023-03-03T09:26:53.233Z,8.02
2023-03-03T09:31:00.219Z,8.20
2023-03-03T09:35:01.039Z,8.60
2023-03-03T09:39:03.349Z,9.10
2023-03-03T09:43:12.619Z,9.53
2023-03-03T09:47:42.728Z,9.86
2023-03-03T09:52:03.320Z,10.62
2023-03-03T09:56:20.936Z,10.66
2023-03-03T10:00:44.885Z,11.17
2023-03-03T10:05:19.255Z,11.36
2023-03-03T10:10:01.962Z,11.51
2023-03-03T10:14:28.870Z,11.83
2023-03-03T10:18:42.659Z,12.46
2023-03-03T10:22:56.912Z,12.91
2023-03-03T10:27:23.326Z,12.78
2023-03-03T10:31:38.572Z,13.27
2023-03-03T10:36:07.381Z,13.47
2023-03-03T10:40:28.784Z,13.50
2023-03-03T10:44:58.126Z,13.65
2023-03-03T10:49:25.227Z,14.19
2023-03-03T10:53:36.707Z,15.47
2023-03-03T10:57:52.500Z,15.92
2023-03-03T11:02:01.174Z,16.57
2023-03-03T11:06:05.744Z,16.36
2023-03-03T11:10:30.590Z,16.67
2023-03-03T11:14:47.779Z,16.50
2023-03-03T11:19:15.828Z,16.63
2023-03-03T11:23:47.484Z,17.97
2023-03-03T11:28:17.483Z,17.91
2023-03-03T11:32:37.004Z,18.06
2023-03-03T11:36:45.430Z,18.14
2023-03-03T11:40:54.229Z,18.01
2023-03-03T11:45:00.138Z,18.29
2023-03-03T11:49:13.024Z,18.76
2023-03-03T11:53:57.292Z,19.29
2023-03-03T11:58:10.323Z,19.83
2023-03-03T12:02:33.256Z,19.56
2023-03-03T12:07:09.766Z,20.04
2023-03-03T12:11:31.034Z,20.80
2023-03-03T12:15:44.939Z,21.80
2023-03-03T12:19:58.173Z,21.43
2023-03-03T12:24:34.186Z,21.36
2023-03-03T12:28:48.094Z,21.57
2023-03-03T12:33:09.305Z,22.26
2023-03-03T12:37:32.836Z,22.77
2023-03-03T12:41:46.717Z,23.15
2023-03-03T12:46:03.144Z,23.34
2023-03-03T12:50:39.668Z,23.10
2023-03-03T12:55:11.467Z,22.50
2023-03-03T12:59:28.205Z,22.49
2023-03-03T13:03:55.269Z,22.83
2023-03-03T13:08:21.193Z,23.18
2023-03-03T13:12:35.541Z,23.43
2023-03-03T13:16:47.492Z,23.58
2023-03-03T13:21:08.066Z,23.44
2023-03-03T13:25:27.945Z,22.67
2023-03-03T13:29:33.394Z,22.43
2023-03-03T13:33:40.467Z,21.99
2023-03-03T13:37:47.808Z,22.30
2023-03-03T13:41:59.714Z,22.06
2023-03-03T13:46:13.856Z,22.50
2023-03-03T13:50:27.887Z,22.44
2023-03-03T13:55:06.218Z,22.71
2023-03-03T13:59:24.405Z,22.25
2023-03-03T14:03:50.377Z,22.01
2023-03-03T14:08:01.066Z,21.46
2023-03-03T14:12:15.282Z,21.03
2023-03-03T14:16:33.332Z,21.45
2023-03-03T14:20:46.700Z,21.37
2023-03-03T14:25:17.404Z,21.15
2023-03-03T14:29:32.537Z,21.85
2023-03-03T14:33:35.282Z,22.03
2023-03-03T14:37:47.758Z,22.19
2023-03-03T14:41:52.804Z,22.34
2023-03-03T14:45:53.938Z,21.74
2023-03-03T14:50:03.763Z,21.84
2023-03-03T14:54:04.694Z,21.66
2023-03-03T14:58:27.962Z,20.89
2023-03-03T15:02:46.354Z,20.95
2023-03-03T15:06:50.395Z,21.16
2023-03-03T15:10:52.547Z,21.10
2023-03-03T15:15:05.846Z,21.05
2023-03-03T15:19:47.505Z,20.89
2023-03-03T15:24:05.046Z,19.92
2023-03-03T15:28:25.482Z,19.56
2023-03-03T15:32:37.077Z,19.40
2023-03-03T15:36:48.312Z,19.35
2023-03-03T15:40:57.682Z,19.21
2023-03-03T15:45:10.836Z,19.24
2023-03-03T15:49:38.448Z,18.10
2023-03-03T15:54:11.599Z,17.35
2023-03-03T15:58:48.122Z,16.86
2023-03-03T16:02:58.940Z,16.26
2023-03-03T16:07:12.280Z,15.82
2023-03-03T16:11:24.301Z,15.53
2023-03-03T16:15:44.717Z,14.97
2023-03-03T16:19:56.490Z,14.51
2023-03-03T16:24:10.228Z,14.28
2023-03-03T16:28:19.932Z,13.89
2023-03-03T16:32:36.543Z,13.52
2023-03-03T16:36:56.222Z,12.98
2023-03-03T16:41:03.792Z,12.48
2023-03-03T16:45:22.955Z,11.98
2023-03-03T16:49:35.712Z,11.17
2023-03-03T16:54:09.587Z,10.51
2023-03-03T16:58:33.165Z,9.93
2023-03-03T17:03:13.841Z,9.48
2023-03-03T17:07:33.448Z,9.12
2023-03-03T17:11:58.197Z,8.76
2023-03-03T17:16:16.317Z,8.46
2023-03-03T17:20:33.952Z,7.98
2023-03-03T17:24:48.497Z,7.85
2023-03-03T17:29:12.634Z,7.57
2023-03-03T17:33:49.930Z,7.25
2023-03-03T17:38:02.053Z,7.03
2023-03-03T17:42:19.140Z,6.85
2023-03-03T17:46:28.917Z,6.73
2023-03-03T17:51:14.269Z,6.63
2023-03-03T17:55:42.867Z,6.49
2023-03-03T18:00:06.577Z,6.61
2023-03-03T18:04:42.649Z,6.68
2023-03-03T18:09:13.799Z,6.67
2023-03-03T18:13:37.044Z,6.55
2023-03-03T18:18:06.186Z,6.44
2023-03-03T18:22:14.545Z,6.25
2023-03-03T18:26:41.888Z,6.16
2023-03-03T18:31:01.113Z,5.98
2023-03-03T18:35:28.098Z,5.88
2023-03-03T18:39:46.517Z,5.83
2023-03-03T18:44:04.691Z,5.57
2023-03-03T18:48:14.899Z,5.63
2023-03-03T18:52:24.936Z,5.66
2023-03-03T18:56:48.447Z,5.47
2023-03-03T19:00:55.985Z,5.37
2023-03-03T19:05:07.739Z,5.25
2023-03-03T19:09:10.527Z,4.98
2023-03-03T19:13:57.321Z,4.94
2023-03-03T19:18:03.383Z,4.75
2023-03-03T19:22:27.419Z,4.56
2023-03-03T19:27:07.406Z,4.40
2023-03-03T19:31:19.013Z,4.26
2023-03-03T19:35:36.205Z,3.97
2023-03-03T19:39:52.420Z,4.12
2023-03-03T19:44:15.852Z,4.02
2023-03-03T19:48:28.879Z,3.82
2023-03-03T19:52:43.076Z,3.72
2023-03-03T19:56:51.570Z,3.55
2023-03-03T20:01:01.789Z,3.42
2023-03-03T20:05:23.340Z,3.31
2023-03-03T20:09:39.114Z,3.25
2023-03-03T20:13:57.346Z,3.15
2023-03-03T20:18:46.837Z,2.92
2023-03-03T20:22:59.809Z,2.81
2023-03-03T20:27:09.717Z,2.58
2023-03-03T20:31:22.500Z,2.53
2023-03-03T20:35:40.193Z,2.37
2023-03-03T20:40:01.365Z,2.22
2023-03-03T20:44:20.469Z,2.23
2023-03-03T20:48:51.358Z,2.26
2023-03-03T20:53:09.519Z,2.35
2023-03-03T20:57:21.431Z,2.21
2023-03-03T21:01:39.320Z,2.35
2023-03-03T21:06:01.239Z,2.26
2023-03-03T21:10:16.700Z,2.04
2023-03-03T21:14:24.187Z,1.94
2023-03-03T21:18:29.878Z,1.81
2023-03-03T21:22:30.519Z,1.72
2023-03-03T21:26:57.301Z,1.63
2023-03-03T21:31:17.755Z,1.59
2023-03-03T21:35:24.816Z,1.50
2023-03-03T21:39:32.613Z,1.44
2023-03-03T21:43:37.429Z,1.45
2023-03-03T21:47:39.436Z,1.37
2023-03-03T21:51:42.654Z,1.35
2023-03-03T21:55:48.873Z,1.26
2023-03-03T21:59:49.583Z,1.20
2023-03-03T22:03:50.795Z,1.16
2023-03-03T22:07:54.161Z,1.14
2023-03-03T22:11:54.906Z,1.10
2023-03-03T22:15:56.565Z,1.02
2023-03-03T22:19:56.934Z,1.01
2023-03-03T22:24:00.861Z,0.81
2023-03-03T22:28:02.158Z,0.81
2023-03-03T22:32:03.059Z,0.76
2023-03-03T22:36:04.090Z,0.74
2023-03-03T22:40:08.468Z,0.77
2023-03-03T22:44:09.826Z,0.64
2023-03-03T22:48:10.750Z,0.64
2023-03-03T22:52:12.182Z,0.62
2023-03-03T22:56:15.127Z,0.60
2023-03-03T23:00:19.384Z,0.62
2023-03-03T23:04:20.078Z,0.57
2023-03-03T23:08:21.854Z,0.59
2023-03-03T23:12:25.176Z,0.48
2023-03-03T23:16:25.628Z,0.39
2023-03-03T23:20:30.840Z,0.39
2023-03-03T23:24:33.223Z,0.38
2023-03-03T23:28:36.646Z,0.36
2023-03-03T23:32:38.202Z,0.27
2023-03-03T23:36:38.771Z,0.20
2023-03-03T23:40:39.129Z,0.19
2023-03-03T23:44:43.557Z,0.15
2023-03-03T23:48:44.317Z,0.23
2023-03-03T23:52:44.871Z,0.15
2023-03-03T23:56:45.355Z,0.19
